Clifton, North Dakota
Current Conditions -  °F | °C
As of 10:35 PM on Wednesday 26 Nov 2014 (Local Time) from K5H4 Reporting Station
Haze Haze  
Wind Chill: -17°   Ceiling: Unl
Heat Index: -17°   Visibility: 1.5mi
Dew Point: -20°   Wind: 3mph
Humidity: 84%   Direction: 200°SSW
Pressure: 30.47"   Gusts: NA
Location:  47.7181°N, 100.121°W
Report Text: K5H4 270435Z AUTO 20003KT 1 1/2SM BR CLR M27/M29 A3047 RMK AO2 VSBY 3/4V5
Loading
Personal Weather Stations






























Interactive Weather Map New forecast layout! Learn more

10-Day Weather Forecast

Advertisements
Track Severe Weather on mobile